Roma, Italy

6:26 PM CET on February 09, 2016 (GMT +0100)
Centocelle | | Change Station
CLOSE
Current Station
Personal Weather Station
Location: Rome, RM
Elevation: 148 ft
Nearby Weather Stations

Elev 148 ft 41.88 °N, 12.56 °E | Updated 11 seconds ago

Mostly Cloudy
Mostly Cloudy
55.8 °F
Feels Like 55.8 °F
N
11.0
Wind Variable Wind from South
Gusts 22.0 mph

Today
High -- | Low -- °F
--% Chance of Precip.
Yesterday
High -- | Low -- °F
Precip. -- in
Pressure 29.86 in
Visibility 6.2 miles
Clouds Scattered Clouds 1500 ft
Mostly Cloudy 2000 ft
Dew Point 55.8 °F
Humidity 100%
Rainfall 0.07 in
Snow Depth Not available.
7:14 AM 5:34 PM
New Moon, 2% visible
METAR LIRA 091720Z 16014G25KT 9999 SCT015 BKN020 13/10 Q1011
Pressure 29.86 in
Visibility 6.2 miles
Clouds Scattered Clouds 1500 ft
Mostly Cloudy 2000 ft
Dew Point 55.8 °F
Humidity 100%
Rainfall 0.07 in
Snow Depth Not available.
7:14 AM 5:34 PM
New Moon, 2% visible
METAR LIRA 091720Z 16014G25KT 9999 SCT015 BKN020 13/10 Q1011

10-Day Weather Forecast

Almanac

Astronomy

Feb. 09, 2016 Rise Set
Actual Time
Civil Twilight
Nautical Twilight
Astronomical Twilight
Moon
Length of Visible Light
Length of Day
Tomorrow will be .
, % of the Moon is Illuminated

Today's Extremes

Country Highs Country Lows

Community

WunderPhotos

Upload Photos

1,891,637 photos uploaded!

WunderBlog® & News

Nearby

Air Quality

  Air Quality AQ Index Pollutant
Not available.

Snow Depth

Station Depth Elevation

Earthquake Activity

City Distance Mag. Time & Date
Minimum magnitude displayed is 2.5.

Coastal Water Temperatures

Place Temperature

Stations

Nearby Weather Stations

Station Location Temp. Windchill Dew Point Humidity Wind Precip. Elev Updated Type